Time;durP1;ratioP1;P1;durP2;ratioP2;P2;SDS_P1;SDS_P2;PMS_P1;PMS_P2;Temp;Humidity;BMP_temperature;BMP_pressure;BME280_temperature;BME280_humidity;BME280_pressure;Samples;Min_cycle;Max_cycle;Signal;HPM_P1;HPM_P2
2022/03/06 00:01:33;;;;;;;67.45;42.03;;;-0.30;99.90;;;;;;5040667;28;20080;-72
2022/03/06 00:03:59;;;;;;;67.10;41.72;;;-0.20;99.90;;;;;;5048334;28;20082;-72
2022/03/06 00:06:25;;;;;;;66.45;42.25;;;-0.30;99.90;;;;;;5022651;28;20491;-72
2022/03/06 00:08:50;;;;;;;72.13;47.70;;;-0.30;99.90;;;;;;5050411;28;20095;-72
2022/03/06 00:11:16;;;;;;;68.75;44.97;;;-0.30;99.90;;;;;;5023137;28;20525;-72
2022/03/06 00:13:42;;;;;;;76.32;45.53;;;-0.30;99.90;;;;;;5047842;28;20025;-72
2022/03/06 00:16:08;;;;;;;69.90;43.72;;;-0.30;99.90;;;;;;5039659;28;20075;-72
2022/03/06 00:18:36;;;;;;;69.63;43.55;;;-0.30;99.90;;;;;;5042467;28;20045;-72
2022/03/06 00:21:03;;;;;;;74.32;43.15;;;-0.30;99.90;;;;;;5051196;28;20395;-72
2022/03/06 00:23:29;;;;;;;70.03;42.72;;;-0.30;99.90;;;;;;5041877;28;20132;-72
2022/03/06 00:25:55;;;;;;;67.38;42.58;;;-0.30;99.90;;;;;;5052525;28;20128;-72
2022/03/06 00:28:20;;;;;;;78.70;46.38;;;-0.20;99.90;;;;;;5040974;28;20136;-72
2022/03/06 00:30:47;;;;;;;63.25;42.50;;;-0.20;99.90;;;;;;5044956;28;20040;-71
2022/03/06 00:33:13;;;;;;;67.40;42.65;;;-0.20;99.90;;;;;;5034065;28;20491;-72
2022/03/06 00:35:39;;;;;;;70.68;42.45;;;-0.20;99.90;;;;;;5042393;28;20095;-72
2022/03/06 00:38:04;;;;;;;68.10;43.13;;;-0.10;99.90;;;;;;5039933;28;20094;-72
2022/03/06 00:40:30;;;;;;;72.40;43.42;;;-0.10;99.90;;;;;;5048016;28;20090;-72
2022/03/06 00:42:56;;;;;;;69.80;42.30;;;0.00;99.90;;;;;;5044673;28;20124;-72
2022/03/06 00:45:22;;;;;;;65.80;41.42;;;-0.10;99.90;;;;;;5049945;28;20036;-72
2022/03/06 00:47:47;;;;;;;61.95;41.92;;;-0.10;99.90;;;;;;5047864;28;20036;-72
2022/03/06 00:50:14;;;;;;;68.97;42.15;;;-0.10;99.90;;;;;;5042093;28;20430;-72
2022/03/06 00:52:40;;;;;;;61.17;41.65;;;-0.10;99.90;;;;;;5037989;28;20049;-72
2022/03/06 00:55:07;;;;;;;64.40;41.05;;;-0.10;99.90;;;;;;5039243;28;20062;-72
2022/03/06 00:57:32;;;;;;;71.32;43.10;;;-0.10;99.90;;;;;;5038024;28;20079;-72
2022/03/06 00:59:58;;;;;;;61.17;39.30;;;-0.10;99.90;;;;;;5032561;28;20486;-72
2022/03/06 01:02:24;;;;;;;60.10;36.95;;;-0.10;99.90;;;;;;5048500;28;20150;-72
2022/03/06 01:04:50;;;;;;;63.60;41.15;;;0.00;99.90;;;;;;5047519;28;20558;-72
2022/03/06 01:07:15;;;;;;;63.05;41.08;;;0.00;99.90;;;;;;5047876;28;20033;-72
2022/03/06 01:09:41;;;;;;;68.90;41.50;;;-0.10;99.90;;;;;;5044296;28;20049;-72
2022/03/06 01:12:07;;;;;;;63.13;40.38;;;0.00;99.90;;;;;;5048111;28;20109;-72
2022/03/06 01:14:34;;;;;;;74.50;38.63;;;-0.10;99.90;;;;;;5032749;28;20107;-72
2022/03/06 01:17:00;;;;;;;65.93;38.97;;;-0.10;99.90;;;;;;5045842;28;20044;-72
2022/03/06 01:19:25;;;;;;;58.53;37.90;;;-0.10;99.90;;;;;;5032659;28;20040;-72
2022/03/06 01:21:51;;;;;;;56.00;38.03;;;-0.10;99.90;;;;;;5043260;28;20048;-71
2022/03/06 01:24:17;;;;;;;68.40;41.28;;;-0.10;99.90;;;;;;5039459;28;20037;-72
2022/03/06 01:26:43;;;;;;;68.35;40.35;;;-0.10;99.90;;;;;;5023528;28;20399;-72
2022/03/06 01:29:09;;;;;;;69.45;39.70;;;-0.10;99.90;;;;;;5048241;28;20048;-71
2022/03/06 01:31:35;;;;;;;66.90;38.78;;;-0.10;99.90;;;;;;5048760;28;20029;-72
2022/03/06 01:34:02;;;;;;;56.72;37.97;;;-0.10;99.90;;;;;;5052630;28;20141;-72
2022/03/06 01:36:29;;;;;;;64.38;37.88;;;-0.10;99.90;;;;;;5041634;28;20068;-72
2022/03/06 01:38:54;;;;;;;54.05;36.65;;;-0.10;99.90;;;;;;5052897;28;20033;-72
2022/03/06 01:41:20;;;;;;;47.42;34.22;;;-0.10;99.90;;;;;;5047063;28;20156;-72
2022/03/06 01:43:46;;;;;;;59.55;39.22;;;-0.10;99.90;;;;;;5030564;28;20045;-72
2022/03/06 01:46:13;;;;;;;59.65;35.97;;;-0.10;99.90;;;;;;5058212;28;20040;-72
2022/03/06 01:48:39;;;;;;;58.27;35.37;;;-0.10;99.90;;;;;;5050830;28;20045;-72
2022/03/06 01:51:05;;;;;;;56.65;34.92;;;-0.10;99.90;;;;;;5045789;28;20809;-72
2022/03/06 01:53:31;;;;;;;60.15;34.65;;;0.00;99.90;;;;;;5042524;28;20033;-72
2022/03/06 01:55:57;;;;;;;50.75;33.17;;;0.00;99.90;;;;;;5050540;28;20036;-72
2022/03/06 01:58:23;;;;;;;50.95;33.25;;;0.00;99.90;;;;;;5041334;28;20403;-72
2022/03/06 02:00:49;;;;;;;46.55;32.60;;;0.00;99.90;;;;;;5042458;28;20041;-72
2022/03/06 02:03:17;;;;;;;54.10;34.45;;;0.00;99.90;;;;;;5028494;28;20483;-72
2022/03/06 02:05:44;;;;;;;61.83;33.35;;;0.10;99.90;;;;;;5044384;28;20450;-72
2022/03/06 02:08:11;;;;;;;47.22;31.90;;;0.10;99.90;;;;;;5049498;28;20051;-72
2022/03/06 02:10:37;;;;;;;49.50;32.58;;;0.20;99.90;;;;;;5042958;28;20045;-72
2022/03/06 02:13:04;;;;;;;53.38;33.53;;;0.20;99.90;;;;;;5034281;28;20033;-72
2022/03/06 02:15:30;;;;;;;44.30;29.80;;;0.20;99.90;;;;;;5050935;28;20056;-72
2022/03/06 02:17:56;;;;;;;48.20;32.70;;;0.20;99.90;;;;;;5048974;28;20093;-72
2022/03/06 02:20:24;;;;;;;46.55;32.58;;;0.20;99.90;;;;;;5055701;28;20482;-72
2022/03/06 02:22:55;;;;;;;47.25;31.80;;;0.30;99.90;;;;;;5042576;28;20073;-72
2022/03/06 02:25:28;;;;;;;41.20;29.90;;;0.30;99.90;;;;;;5041817;28;20144;-72
2022/03/06 02:27:56;;;;;;;55.90;30.95;;;0.30;99.90;;;;;;5040262;28;20565;-72
2022/03/06 02:30:24;;;;;;;45.55;31.17;;;0.30;99.90;;;;;;5045011;28;20121;-72
2022/03/06 02:32:51;;;;;;;39.88;29.75;;;0.30;99.90;;;;;;5044302;28;20041;-72
2022/03/06 02:35:17;;;;;;;45.05;29.42;;;0.30;99.90;;;;;;5042388;28;20120;-72
2022/03/06 02:37:43;;;;;;;38.28;27.98;;;0.30;99.90;;;;;;5042693;28;20440;-72
2022/03/06 02:40:14;;;;;;;41.65;30.27;;;0.30;99.90;;;;;;5051777;28;20090;-72
2022/03/06 02:42:42;;;;;;;38.35;28.70;;;0.30;99.90;;;;;;5048434;28;20506;-72
2022/03/06 02:45:25;;;;;;;41.13;28.70;;;0.40;99.90;;;;;;5022592;28;20044;-72
2022/03/06 02:47:56;;;;;;;44.55;29.73;;;0.40;99.90;;;;;;5042382;28;20048;-72
2022/03/06 02:50:31;;;;;;;43.10;28.67;;;0.40;99.90;;;;;;5065452;28;20135;-72
2022/03/06 02:52:58;;;;;;;39.72;28.25;;;0.40;99.90;;;;;;5038536;28;20048;-72
2022/03/06 02:55:25;;;;;;;48.42;30.67;;;0.40;99.90;;;;;;5038803;28;20041;-72
2022/03/06 02:57:51;;;;;;;43.80;30.48;;;0.40;99.90;;;;;;5047970;28;20072;-72
2022/03/06 03:00:19;;;;;;;45.53;30.27;;;0.50;99.90;;;;;;5042276;28;20092;-72
2022/03/06 03:02:47;;;;;;;40.95;29.80;;;0.50;99.90;;;;;;5029999;28;20503;-71
2022/03/06 03:05:13;;;;;;;44.38;29.33;;;0.50;99.90;;;;;;5041829;28;20747;-72
2022/03/06 03:07:41;;;;;;;43.40;30.73;;;0.50;99.90;;;;;;5048287;28;20116;-72
2022/03/06 03:10:08;;;;;;;33.83;27.10;;;0.50;99.90;;;;;;5043839;28;20045;-71
2022/03/06 03:12:34;;;;;;;41.55;30.08;;;0.50;99.90;;;;;;5050035;28;20041;-72
2022/03/06 03:15:00;;;;;;;41.75;30.00;;;0.50;99.90;;;;;;5051147;28;20041;-72
2022/03/06 03:17:25;;;;;;;44.40;30.05;;;0.50;99.90;;;;;;5048928;28;20114;-72
2022/03/06 03:19:51;;;;;;;43.50;27.83;;;0.50;99.90;;;;;;5041883;28;20495;-72
2022/03/06 03:22:17;;;;;;;34.70;27.40;;;0.40;99.90;;;;;;5038944;28;20045;-71
2022/03/06 03:24:42;;;;;;;36.22;29.65;;;0.40;99.90;;;;;;5050240;28;20068;-72
2022/03/06 03:27:08;;;;;;;38.63;29.65;;;0.40;99.90;;;;;;5030295;28;20047;-72
2022/03/06 03:29:34;;;;;;;39.58;29.45;;;0.40;99.90;;;;;;5051366;28;20083;-72
2022/03/06 03:32:00;;;;;;;37.83;28.35;;;0.40;99.90;;;;;;5052146;28;20112;-73
2022/03/06 03:34:26;;;;;;;36.17;27.75;;;0.30;99.90;;;;;;5051070;28;20049;-72
2022/03/06 03:36:51;;;;;;;44.65;27.38;;;0.40;99.90;;;;;;5047948;28;20063;-72
2022/03/06 03:39:18;;;;;;;34.58;26.35;;;0.40;99.90;;;;;;5040010;28;20045;-72
2022/03/06 03:41:44;;;;;;;36.90;28.27;;;0.30;99.90;;;;;;5030028;28;20049;-72
2022/03/06 03:44:11;;;;;;;39.13;27.17;;;0.30;99.90;;;;;;5046635;28;20091;-72
2022/03/06 03:46:37;;;;;;;38.40;28.53;;;0.30;99.90;;;;;;5048638;28;20120;-72
2022/03/06 03:49:03;;;;;;;28.60;25.10;;;0.30;99.90;;;;;;5035352;28;20845;-72
2022/03/06 03:51:30;;;;;;;31.33;25.65;;;0.30;99.90;;;;;;5030014;28;20045;-72
2022/03/06 03:53:55;;;;;;;36.38;27.95;;;0.30;99.90;;;;;;5045320;28;20051;-72
2022/03/06 03:56:21;;;;;;;37.15;27.23;;;0.30;99.90;;;;;;5037932;28;20400;-72
2022/03/06 03:58:47;;;;;;;31.42;25.63;;;0.30;99.90;;;;;;5028639;28;20033;-72
2022/03/06 04:01:13;;;;;;;37.47;25.50;;;0.30;99.90;;;;;;5039508;28;20376;-72
2022/03/06 04:03:39;;;;;;;35.45;26.90;;;0.30;99.90;;;;;;5048110;28;20422;-73
2022/03/06 04:06:04;;;;;;;31.92;25.73;;;0.30;99.90;;;;;;5037349;28;20488;-72
2022/03/06 04:08:30;;;;;;;47.80;26.95;;;0.20;99.90;;;;;;5045786;28;20079;-72
2022/03/06 04:10:59;;;;;;;28.73;25.55;;;0.20;99.90;;;;;;5039950;28;20033;-72
2022/03/06 04:13:27;;;;;;;;;;;0.20;99.90;;;;;;5053436;28;20042;-72
2022/03/06 04:15:53;;;;;;;;;;;0.20;99.90;;;;;;5045088;28;20281;-73
2022/03/06 04:18:19;;;;;;;31.98;25.00;;;0.10;99.90;;;;;;5044890;28;20011;-72
2022/03/06 04:20:44;;;;;;;30.25;25.48;;;0.10;99.90;;;;;;5047745;28;20036;-72
2022/03/06 04:23:10;;;;;;;27.83;24.77;;;0.10;99.90;;;;;;5046338;28;20037;-72
2022/03/06 04:25:36;;;;;;;35.72;25.73;;;0.00;99.90;;;;;;5040173;28;20033;-72
2022/03/06 04:28:02;;;;;;;33.25;24.77;;;0.00;99.90;;;;;;5044569;28;20314;-72
2022/03/06 04:30:28;;;;;;;28.27;23.63;;;0.00;99.90;;;;;;5044403;28;20030;-72
2022/03/06 04:32:54;;;;;;;32.50;25.10;;;0.00;99.90;;;;;;5042944;28;20530;-73
2022/03/06 04:35:20;;;;;;;30.35;24.67;;;-0.10;99.90;;;;;;5043677;28;20037;-72
2022/03/06 04:37:45;;;;;;;31.17;25.08;;;-0.20;99.90;;;;;;5030263;28;20029;-72
2022/03/06 04:40:12;;;;;;;28.15;23.83;;;-0.20;99.90;;;;;;5039760;28;20045;-72
2022/03/06 04:42:38;;;;;;;29.67;22.48;;;-0.20;99.90;;;;;;5045333;28;20108;-72
2022/03/06 04:45:04;;;;;;;27.35;22.65;;;-0.20;99.90;;;;;;5036898;28;20123;-72
2022/03/06 04:47:29;;;;;;;28.63;22.58;;;-0.20;99.90;;;;;;5044102;28;20112;-73
2022/03/06 04:49:55;;;;;;;37.15;22.65;;;-0.20;99.90;;;;;;5044126;28;20398;-73
2022/03/06 04:52:21;;;;;;;32.45;22.25;;;-0.20;99.90;;;;;;5021820;28;20508;-73
2022/03/06 04:54:47;;;;;;;29.05;22.10;;;-0.20;99.90;;;;;;5048695;28;20446;-72
2022/03/06 04:57:14;;;;;;;28.58;22.65;;;-0.10;99.90;;;;;;5037772;28;20091;-72
2022/03/06 04:59:40;;;;;;;27.58;20.27;;;-0.10;99.90;;;;;;5041748;28;20069;-72
2022/03/06 05:02:06;;;;;;;27.38;21.80;;;-0.10;99.90;;;;;;5042547;28;20091;-73
2022/03/06 05:04:32;;;;;;;27.48;20.75;;;-0.10;99.90;;;;;;5045252;28;20434;-72
2022/03/06 05:06:59;;;;;;;26.80;21.08;;;-0.10;99.90;;;;;;5045567;28;20048;-72
2022/03/06 05:09:24;;;;;;;26.95;19.85;;;-0.10;99.90;;;;;;5045119;28;20045;-72
2022/03/06 05:11:50;;;;;;;24.70;19.42;;;-0.10;99.90;;;;;;5046434;28;20194;-72
2022/03/06 05:14:16;;;;;;;26.40;19.90;;;-0.20;99.90;;;;;;5043716;28;20107;-72
2022/03/06 05:16:42;;;;;;;37.17;19.85;;;-0.20;99.90;;;;;;5048023;28;20112;-72
2022/03/06 05:19:08;;;;;;;34.55;19.90;;;-0.20;99.90;;;;;;5049855;28;20099;-71
2022/03/06 05:21:35;;;;;;;38.33;20.38;;;-0.20;99.90;;;;;;5043710;28;20037;-72
2022/03/06 05:24:01;;;;;;;34.75;20.88;;;-0.20;99.90;;;;;;5043921;28;20449;-72
2022/03/06 05:26:26;;;;;;;27.17;19.77;;;-0.20;99.90;;;;;;5051063;28;20041;-72
2022/03/06 05:28:52;;;;;;;29.15;20.15;;;-0.30;99.90;;;;;;5048813;28;20032;-71
2022/03/06 05:31:18;;;;;;;28.17;19.85;;;-0.30;99.90;;;;;;5047126;28;20303;-72
2022/03/06 05:33:44;;;;;;;34.13;19.85;;;-0.30;99.90;;;;;;5027601;28;20076;-72
2022/03/06 05:36:10;;;;;;;40.90;21.33;;;-0.30;99.90;;;;;;5041435;28;20065;-72
2022/03/06 05:38:36;;;;;;;29.63;19.67;;;-0.30;99.90;;;;;;5045962;28;20099;-72
2022/03/06 05:41:02;;;;;;;28.08;20.15;;;-0.30;99.90;;;;;;5034834;28;20483;-72
2022/03/06 05:43:27;;;;;;;27.58;17.80;;;-0.40;99.90;;;;;;5039187;28;20712;-72
2022/03/06 05:45:53;;;;;;;27.15;19.27;;;-0.40;99.90;;;;;;5044674;28;20187;-72
2022/03/06 05:48:20;;;;;;;26.27;19.10;;;-0.40;99.90;;;;;;5053732;28;20038;-72
2022/03/06 05:50:46;;;;;;;27.85;19.13;;;-0.40;99.90;;;;;;5045185;28;20530;-72
2022/03/06 05:53:13;;;;;;;32.17;19.23;;;-0.50;99.90;;;;;;5046896;28;20049;-72
2022/03/06 05:55:38;;;;;;;27.75;19.83;;;-0.50;99.90;;;;;;5046052;28;20474;-72
2022/03/06 05:58:04;;;;;;;27.42;19.30;;;-0.50;99.90;;;;;;5049870;28;20075;-73
2022/03/06 06:00:30;;;;;;;25.90;19.20;;;-0.50;99.90;;;;;;5044318;28;20037;-71
2022/03/06 06:02:56;;;;;;;26.73;18.02;;;-0.50;99.90;;;;;;5048463;28;20041;-72
2022/03/06 06:05:22;;;;;;;28.20;18.77;;;-0.50;99.90;;;;;;5049552;28;20491;-72
2022/03/06 06:07:52;;;;;;;28.75;19.25;;;-0.50;99.90;;;;;;5046572;28;20049;-72
2022/03/06 06:10:23;;;;;;;22.67;17.63;;;-0.60;99.90;;;;;;5048392;28;20037;-72
2022/03/06 06:12:49;;;;;;;24.77;18.65;;;-0.50;99.90;;;;;;5034696;28;20478;-72
2022/03/06 06:15:16;;;;;;;28.63;18.00;;;-0.50;99.90;;;;;;5047903;28;20045;-72
2022/03/06 06:17:42;;;;;;;22.75;17.58;;;-0.60;99.90;;;;;;5055937;28;20060;-72
2022/03/06 06:20:08;;;;;;;26.23;18.25;;;-0.60;99.90;;;;;;5046722;28;20049;-72
2022/03/06 06:22:35;;;;;;;23.70;17.75;;;-0.60;99.90;;;;;;5038294;28;20157;-72
2022/03/06 06:25:02;;;;;;;25.38;18.08;;;-0.60;99.90;;;;;;5047085;28;20044;-72
2022/03/06 06:27:28;;;;;;;33.55;20.35;;;-0.60;99.90;;;;;;5044583;28;20032;-72
2022/03/06 06:29:54;;;;;;;28.83;18.95;;;-0.60;99.90;;;;;;5035915;28;20128;-72
2022/03/06 06:32:21;;;;;;;26.70;18.55;;;-0.60;99.90;;;;;;5050642;28;20531;-72
2022/03/06 06:34:47;;;;;;;29.02;18.35;;;-0.50;99.90;;;;;;5024343;28;20051;-72
2022/03/06 06:37:13;;;;;;;30.58;17.75;;;-0.50;99.90;;;;;;5047372;28;20041;-72
2022/03/06 06:39:39;;;;;;;26.25;17.00;;;-0.40;99.90;;;;;;5056013;28;20461;-72
2022/03/06 06:42:06;;;;;;;27.90;17.15;;;-0.40;99.90;;;;;;5040413;28;20217;-72
2022/03/06 06:44:32;;;;;;;22.48;16.13;;;-0.40;99.90;;;;;;5045740;28;20219;-72
2022/03/06 06:46:58;;;;;;;28.15;17.80;;;-0.40;99.90;;;;;;5042548;28;20046;-72
2022/03/06 06:49:25;;;;;;;21.17;16.40;;;-0.30;99.90;;;;;;5042116;28;20052;-72
2022/03/06 06:51:51;;;;;;;23.23;16.58;;;-0.30;99.90;;;;;;5031607;28;20088;-72
2022/03/06 06:54:17;;;;;;;25.27;15.23;;;-0.30;99.90;;;;;;5039739;28;20365;-72
2022/03/06 06:56:43;;;;;;;22.08;17.25;;;-0.20;99.90;;;;;;5037212;28;20725;-72
2022/03/06 06:59:10;;;;;;;23.10;16.25;;;-0.20;99.90;;;;;;5029496;28;20033;-73
2022/03/06 07:01:35;;;;;;;29.25;15.93;;;-0.20;99.90;;;;;;5047730;28;20044;-72
2022/03/06 07:04:01;;;;;;;21.23;14.55;;;-0.10;99.90;;;;;;5042174;28;20045;-72
2022/03/06 07:06:27;;;;;;;32.08;16.70;;;-0.10;99.90;;;;;;5045595;28;20041;-72
2022/03/06 07:08:53;;;;;;;22.25;15.25;;;-0.10;99.90;;;;;;5035573;28;20246;-72
2022/03/06 07:11:18;;;;;;;19.77;15.25;;;-0.10;99.90;;;;;;5045178;28;20045;-72
2022/03/06 07:13:44;;;;;;;21.42;15.70;;;0.00;99.90;;;;;;5039500;28;20070;-72
2022/03/06 07:16:10;;;;;;;18.98;14.43;;;0.00;99.90;;;;;;5047337;28;20040;-72
2022/03/06 07:18:35;;;;;;;21.35;13.32;;;0.00;99.90;;;;;;5045570;28;20068;-72
2022/03/06 07:21:04;;;;;;;21.52;13.52;;;0.00;99.90;;;;;;5038156;28;20048;-72
2022/03/06 07:23:30;;;;;;;15.45;11.95;;;0.00;99.90;;;;;;5045350;28;20095;-72
2022/03/06 07:25:56;;;;;;;21.52;13.55;;;0.00;99.90;;;;;;5062550;28;20041;-72
2022/03/06 07:28:22;;;;;;;16.20;13.05;;;0.10;99.90;;;;;;5046440;28;20406;-72
2022/03/06 07:30:48;;;;;;;16.95;11.73;;;0.20;99.90;;;;;;5045356;28;20092;-72
2022/03/06 07:33:14;;;;;;;21.40;13.63;;;0.20;99.90;;;;;;5041401;28;20063;-71
2022/03/06 07:35:40;;;;;;;17.70;12.35;;;0.20;99.90;;;;;;5043389;28;20064;-71
2022/03/06 07:38:06;;;;;;;29.25;11.95;;;0.30;99.90;;;;;;5040741;28;20080;-71
2022/03/06 07:43:29;;;;;;;18.30;12.18;;;0.50;99.90;;;;;;5197669;23;20056;-76
2022/03/06 07:45:55;;;;;;;24.27;11.25;;;0.60;99.90;;;;;;5008926;28;20054;-76
2022/03/06 07:48:22;;;;;;;12.93;10.55;;;0.70;99.90;;;;;;5008418;28;20052;-77
2022/03/06 07:50:47;;;;;;;14.48;10.73;;;0.80;99.90;;;;;;5008166;28;20053;-76
2022/03/06 07:53:13;;;;;;;15.85;11.73;;;0.90;99.90;;;;;;5007815;28;20451;-74
2022/03/06 07:55:40;;;;;;;17.20;11.98;;;1.00;99.90;;;;;;5004617;28;20470;-76
2022/03/06 07:58:05;;;;;;;18.35;11.68;;;1.10;99.90;;;;;;5003930;28;20050;-75
2022/03/06 08:00:31;;;;;;;20.48;12.02;;;1.10;99.90;;;;;;5001818;28;20415;-75
2022/03/06 08:02:57;;;;;;;14.88;10.52;;;1.20;99.90;;;;;;5006469;28;20050;-74
2022/03/06 08:05:23;;;;;;;14.25;10.30;;;1.30;99.90;;;;;;5008104;28;20491;-75
2022/03/06 08:07:49;;;;;;;15.27;11.52;;;1.40;99.90;;;;;;5009704;28;20072;-77
2022/03/06 08:10:15;;;;;;;12.02;9.30;;;1.50;99.90;;;;;;5006852;28;20128;-76
2022/03/06 08:12:41;;;;;;;12.30;11.00;;;1.60;99.90;;;;;;4998773;28;20050;-74
2022/03/06 08:15:10;;;;;;;15.10;11.27;;;1.70;99.90;;;;;;5004999;28;20111;-73
2022/03/06 08:17:37;;;;;;;17.23;10.30;;;1.80;99.90;;;;;;5007462;28;20445;-75
2022/03/06 08:20:06;;;;;;;13.52;10.48;;;1.80;99.90;;;;;;5006067;28;20057;-76
2022/03/06 08:22:32;;;;;;;15.13;10.20;;;1.90;99.90;;;;;;5005439;28;20042;-75
2022/03/06 08:24:58;;;;;;;18.90;10.88;;;1.90;99.90;;;;;;5008568;28;20044;-74
2022/03/06 08:27:24;;;;;;;25.17;10.38;;;1.80;99.90;;;;;;5004216;28;20625;-74
2022/03/06 08:29:49;;;;;;;14.45;10.52;;;1.90;99.90;;;;;;4997086;28;20042;-74
2022/03/06 08:32:15;;;;;;;13.15;9.85;;;1.90;99.90;;;;;;4989300;28;20907;-74
2022/03/06 08:34:42;;;;;;;12.18;9.73;;;1.90;99.90;;;;;;5006460;28;20050;-74
2022/03/06 08:37:07;;;;;;;16.48;11.25;;;2.10;99.90;;;;;;5004766;28;20082;-74
2022/03/06 08:39:33;;;;;;;14.00;10.50;;;2.10;99.90;;;;;;5006334;28;20073;-74
2022/03/06 08:41:59;;;;;;;18.90;11.65;;;2.10;99.90;;;;;;5000432;28;20065;-74
2022/03/06 08:44:25;;;;;;;13.20;9.43;;;2.20;99.90;;;;;;5005411;28;20168;-74
2022/03/06 08:46:52;;;;;;;12.13;10.52;;;2.20;99.90;;;;;;4998590;28;20050;-74
2022/03/06 08:49:18;;;;;;;11.45;9.40;;;2.30;99.90;;;;;;5004088;28;20059;-75
2022/03/06 08:51:43;;;;;;;13.88;10.10;;;2.40;99.90;;;;;;5002445;28;20046;-75
2022/03/06 08:54:10;;;;;;;13.77;9.27;;;2.40;99.90;;;;;;5004721;28;20504;-75
2022/03/06 08:56:36;;;;;;;14.45;10.70;;;2.40;99.90;;;;;;5007609;28;20052;-75
2022/03/06 08:59:02;;;;;;;13.68;9.60;;;2.50;99.90;;;;;;5003079;28;20049;-76
2022/03/06 09:01:29;;;;;;;27.08;10.55;;;2.50;99.90;;;;;;5004803;28;20129;-75
2022/03/06 09:03:55;;;;;;;16.23;10.20;;;2.60;99.90;;;;;;5007253;28;20123;-75
2022/03/06 09:06:20;;;;;;;11.00;9.07;;;2.80;99.90;;;;;;4989999;28;20586;-76
2022/03/06 09:08:46;;;;;;;8.80;7.85;;;2.90;99.90;;;;;;4998541;28;20113;-75
2022/03/06 09:11:12;;;;;;;14.93;9.93;;;3.00;99.90;;;;;;5003124;28;20040;-76
2022/03/06 09:13:37;;;;;;;12.38;9.10;;;3.00;99.90;;;;;;4994908;28;20049;-74
2022/03/06 09:16:04;;;;;;;11.55;9.35;;;3.00;99.90;;;;;;5003808;28;20049;-76
2022/03/06 09:18:30;;;;;;;10.90;8.98;;;3.10;99.90;;;;;;4988706;28;20050;-76
2022/03/06 09:20:56;;;;;;;11.40;10.30;;;3.10;99.90;;;;;;5006117;28;20046;-76
2022/03/06 09:23:23;;;;;;;13.30;10.25;;;3.30;99.90;;;;;;5000185;28;20049;-76
2022/03/06 09:25:48;;;;;;;9.55;8.55;;;3.30;99.90;;;;;;5003092;28;20038;-75
2022/03/06 09:28:14;;;;;;;13.60;10.90;;;3.40;99.90;;;;;;5004069;28;20462;-76
2022/03/06 09:30:42;;;;;;;10.32;9.30;;;3.50;99.90;;;;;;5002119;28;20511;-76
2022/03/06 09:33:08;;;;;;;10.65;9.43;;;3.60;99.90;;;;;;5002991;28;20050;-76
2022/03/06 09:35:34;;;;;;;11.13;8.88;;;3.70;99.90;;;;;;5002739;28;20577;-77
2022/03/06 09:38:01;;;;;;;11.65;9.30;;;3.70;99.90;;;;;;5004821;28;20045;-76
2022/03/06 09:40:27;;;;;;;19.25;10.98;;;3.70;99.90;;;;;;5002635;28;20058;-76
2022/03/06 09:42:53;;;;;;;13.25;10.38;;;3.80;99.90;;;;;;5005886;28;20050;-76
2022/03/06 09:45:25;;;;;;;17.08;9.60;;;3.80;99.90;;;;;;4999302;28;20042;-77
2022/03/06 09:47:52;;;;;;;9.98;8.75;;;3.90;99.90;;;;;;4999638;28;20121;-76
2022/03/06 09:50:18;;;;;;;10.35;8.60;;;3.90;99.90;;;;;;5002785;28;20053;-76
2022/03/06 09:52:44;;;;;;;10.65;9.30;;;3.90;99.90;;;;;;4999971;28;20054;-77
2022/03/06 09:55:11;;;;;;;9.65;8.65;;;3.90;99.90;;;;;;4998942;28;20057;-76
2022/03/06 09:57:37;;;;;;;17.20;10.48;;;4.00;99.90;;;;;;5006842;28;20046;-76
2022/03/06 10:00:05;;;;;;;12.68;9.25;;;4.00;99.90;;;;;;5008059;28;20045;-76
2022/03/06 10:02:31;;;;;;;13.55;9.80;;;4.20;99.90;;;;;;5004621;28;20047;-76
2022/03/06 10:04:57;;;;;;;13.20;9.40;;;4.20;99.90;;;;;;5006116;28;20108;-77
2022/03/06 10:07:23;;;;;;;14.00;8.38;;;4.30;99.90;;;;;;5004672;28;20103;-77
2022/03/06 10:09:55;;;;;;;10.18;8.93;;;4.20;99.90;;;;;;5003061;28;20137;-77
2022/03/06 10:12:27;;;;;;;12.88;10.00;;;4.20;99.90;;;;;;5007355;28;20046;-76
2022/03/06 10:14:55;;;;;;;11.55;9.38;;;4.20;99.90;;;;;;5006562;28;20044;-77
2022/03/06 10:17:26;;;;;;;12.27;9.40;;;4.30;99.90;;;;;;5009352;28;20042;-76
2022/03/06 10:20:03;;;;;;;9.95;8.27;;;4.30;99.90;;;;;;5007037;28;20465;-77
2022/03/06 10:22:36;;;;;;;11.88;9.05;;;4.40;99.90;;;;;;5003706;28;20529;-76
2022/03/06 10:25:06;;;;;;;10.80;8.05;;;4.50;99.90;;;;;;5007537;28;20052;-76
2022/03/06 10:27:54;;;;;;;9.70;8.80;;;4.60;99.90;;;;;;5008217;28;20053;-76
2022/03/06 10:30:42;;;;;;;10.07;9.05;;;4.70;99.00;;;;;;5007914;28;20058;-76
2022/03/06 10:33:10;;;;;;;;;;;4.70;98.40;;;;;;5010786;28;20065;-75
2022/03/06 10:35:50;;;;;;;9.63;8.65;;;4.80;98.90;;;;;;5004859;28;19976;-77
2022/03/06 10:38:27;;;;;;;14.90;9.50;;;4.90;99.50;;;;;;5009820;28;20507;-76
2022/03/06 10:40:58;;;;;;;10.88;9.18;;;4.90;98.30;;;;;;5004145;28;20132;-76
2022/03/06 10:43:23;;;;;;;19.08;9.80;;;5.00;99.90;;;;;;5004099;28;20054;-77
2022/03/06 10:46:09;;;;;;;18.48;9.05;;;5.00;97.30;;;;;;5006488;28;20061;-74
2022/03/06 10:48:35;;;;;;;9.27;8.38;;;5.00;96.90;;;;;;4989250;28;20093;-75
2022/03/06 10:51:03;;;;;;;16.90;9.02;;;5.10;97.80;;;;;;5004120;28;20069;-75
2022/03/06 10:53:32;;;;;;;11.17;9.90;;;5.10;98.20;;;;;;5009591;28;20049;-74
2022/03/06 10:56:11;;;;;;;9.75;8.73;;;5.10;97.40;;;;;;5016182;28;20053;-74
2022/03/06 10:58:39;;;;;;;13.05;10.15;;;5.10;94.80;;;;;;5011644;28;20046;-74
2022/03/06 11:01:06;;;;;;;11.55;9.02;;;5.20;96.40;;;;;;5011935;28;20057;-74
2022/03/06 11:03:36;;;;;;;11.57;10.18;;;5.30;97.20;;;;;;5006105;28;20069;-75
2022/03/06 11:06:08;;;;;;;11.63;10.07;;;5.50;99.90;;;;;;5004912;28;20124;-76
2022/03/06 11:08:35;;;;;;;10.48;9.35;;;5.40;96.70;;;;;;5007292;28;20458;-75
2022/03/06 11:11:03;;;;;;;10.73;9.65;;;5.50;97.60;;;;;;5026641;28;20180;-76
2022/03/06 11:13:29;;;;;;;14.13;9.88;;;5.70;95.90;;;;;;5005622;28;20392;-76
2022/03/06 11:15:57;;;;;;;12.73;10.43;;;5.60;95.70;;;;;;5013331;28;20716;-74
2022/03/06 11:18:24;;;;;;;12.77;9.55;;;5.60;96.90;;;;;;5007949;28;20454;-75
2022/03/06 11:20:52;;;;;;;13.05;10.43;;;5.80;97.40;;;;;;5007932;28;20112;-74
2022/03/06 11:23:40;;;;;;;12.90;9.73;;;5.80;96.40;;;;;;5009881;28;20061;-75
2022/03/06 11:26:17;;;;;;;11.90;9.10;;;5.70;94.70;;;;;;5005030;28;20108;-75
2022/03/06 11:29:01;;;;;;;12.35;9.10;;;5.70;94.60;;;;;;4998164;28;20046;-78
2022/03/06 11:31:51;;;;;;;13.52;10.73;;;5.70;96.30;;;;;;5006693;28;20045;-74
2022/03/06 11:34:28;;;;;;;11.90;9.95;;;5.70;94.00;;;;;;5003617;28;20046;-74
2022/03/06 11:36:55;;;;;;;14.00;10.23;;;5.70;95.30;;;;;;5002800;28;20053;-73
2022/03/06 11:39:30;;;;;;;12.23;9.48;;;5.70;94.50;;;;;;5007048;28;20042;-73
2022/03/06 11:41:57;;;;;;;20.48;10.45;;;5.70;94.70;;;;;;5005371;28;20061;-75
2022/03/06 11:44:36;;;;;;;14.02;10.82;;;5.80;94.60;;;;;;5003931;28;20062;-73
2022/03/06 11:47:37;;;;;;;12.80;10.70;;;5.80;94.80;;;;;;4987782;28;20112;-79
2022/03/06 11:50:04;;;;;;;15.02;10.68;;;5.90;94.70;;;;;;4990019;28;20057;-74
2022/03/06 11:52:32;;;;;;;15.40;11.90;;;5.80;94.80;;;;;;4988090;28;20759;-76
2022/03/06 11:54:58;;;;;;;11.73;9.25;;;6.00;96.40;;;;;;4988422;28;20073;-79
2022/03/06 11:57:44;;;;;;;15.30;9.77;;;6.00;96.20;;;;;;5007248;28;20045;-77
2022/03/06 12:00:20;;;;;;;16.38;11.65;;;6.00;94.50;;;;;;5002130;28;20045;-78
2022/03/06 12:02:48;;;;;;;12.90;9.98;;;6.00;93.30;;;;;;5006779;28;20078;-76
2022/03/06 12:05:16;;;;;;;17.70;11.05;;;6.00;94.60;;;;;;5007106;28;20044;-76
2022/03/06 12:07:45;;;;;;;16.60;10.60;;;6.00;94.10;;;;;;5005779;28;20080;-76
2022/03/06 12:10:12;;;;;;;24.60;10.25;;;6.00;94.40;;;;;;5008471;28;20049;-77
2022/03/06 12:12:41;;;;;;;16.80;11.48;;;6.00;94.60;;;;;;5003581;28;20045;-77
2022/03/06 12:15:16;;;;;;;15.35;11.88;;;6.00;94.00;;;;;;5003232;28;20135;-76
2022/03/06 12:17:43;;;;;;;14.65;10.90;;;6.10;94.80;;;;;;5005325;28;20081;-77
2022/03/06 12:20:08;;;;;;;12.18;10.82;;;6.20;94.90;;;;;;5010570;28;20532;-77
2022/03/06 12:22:36;;;;;;;22.67;12.15;;;6.30;94.60;;;;;;5005060;28;20495;-75
2022/03/06 12:25:08;;;;;;;22.33;12.10;;;6.40;95.60;;;;;;5004513;28;20496;-76
2022/03/06 12:27:36;;;;;;;12.93;11.05;;;6.30;94.10;;;;;;4988689;28;20054;-74
2022/03/06 12:30:07;;;;;;;15.13;10.85;;;6.60;95.30;;;;;;5003060;28;20061;-74
2022/03/06 12:32:41;;;;;;;13.48;10.52;;;6.60;94.20;;;;;;5012173;28;20075;-75
2022/03/06 12:35:13;;;;;;;10.85;9.70;;;6.50;94.60;;;;;;5022803;28;20060;-77
2022/03/06 12:37:41;;;;;;;15.75;10.38;;;6.60;93.00;;;;;;5003112;28;20057;-77
2022/03/06 12:40:09;;;;;;;21.40;10.88;;;6.70;93.60;;;;;;5006059;28;20050;-75